Time;durP1;ratioP1;P1;durP2;ratioP2;P2;SDS_P1;SDS_P2;PMS_P1;PMS_P2;Temp;Humidity;BMP_temperature;BMP_pressure;BME280_temperature;BME280_humidity;BME280_pressure;Samples;Min_cycle;Max_cycle;Signal;HPM_P1;HPM_P2
2023/05/05 00:02:07;;;;;;;;;13.50;12.50;23.60;39.60;;;;;;110886;1242;49707;-62
2023/05/05 00:04:35;;;;;;;;;12.00;11.00;23.50;40.00;;;;;;110872;1247;45208;-61
2023/05/05 00:07:01;;;;;;;;;10.67;9.67;23.50;40.10;;;;;;110902;1246;54016;-61
2023/05/05 00:09:28;;;;;;;;;12.50;10.00;23.50;40.10;;;;;;110902;1241;53280;-61
2023/05/05 00:11:55;;;;;;;;;13.50;12.00;23.50;40.00;;;;;;110831;1245;49581;-60
2023/05/05 00:14:22;;;;;;;;;11.75;10.75;23.50;40.10;;;;;;110907;1244;50445;-60
2023/05/05 00:16:49;;;;;;;;;11.50;10.50;23.50;40.10;;;;;;110900;1242;45256;-60
2023/05/05 00:19:16;;;;;;;;;14.25;12.00;23.50;40.10;;;;;;110932;1244;54405;-61
2023/05/05 00:21:43;;;;;;;;;11.75;10.75;23.50;40.10;;;;;;110921;1246;53393;-61
2023/05/05 00:24:10;;;;;;;;;11.50;10.25;23.50;40.20;;;;;;110949;1247;49131;-61
2023/05/05 00:26:37;;;;;;;;;13.75;12.00;23.50;40.20;;;;;;110775;1248;50837;-61
2023/05/05 00:29:04;;;;;;;;;11.75;9.75;23.50;40.10;;;;;;110882;1248;44694;-61
2023/05/05 00:31:31;;;;;;;;;12.00;10.67;23.50;40.40;;;;;;110898;1242;55057;-60
2023/05/05 00:33:58;;;;;;;;;11.75;10.00;23.50;40.20;;;;;;110893;1241;53840;-61
2023/05/05 00:36:25;;;;;;;;;12.75;10.00;23.50;40.20;;;;;;110881;1243;50441;-61
2023/05/05 00:38:52;;;;;;;;;14.00;12.75;23.50;40.20;;;;;;110899;1242;50094;-61
2023/05/05 00:41:19;;;;;;;;;12.25;11.00;23.50;40.20;;;;;;110884;1243;44869;-60
2023/05/05 00:43:46;;;;;;;;;12.75;11.50;23.40;40.10;;;;;;110836;1248;55131;-60
2023/05/05 00:46:26;;;;;;;;;12.00;10.00;23.40;40.20;;;;;;110798;1249;53629;-60
2023/05/05 00:48:54;;;;;;;;;12.00;11.00;23.40;39.70;;;;;;110911;1243;49298;-61
2023/05/05 00:51:21;;;;;;;;;12.50;11.00;23.50;40.50;;;;;;110879;1249;49336;-61
2023/05/05 00:53:49;;;;;;;;;12.67;11.67;23.50;40.20;;;;;;110896;1243;45181;-61
2023/05/05 00:56:16;;;;;;;;;11.00;10.00;23.50;40.20;;;;;;110876;1247;54966;-61
2023/05/05 00:58:43;;;;;;;;;12.00;11.00;23.40;40.40;;;;;;110800;1243;54058;-61
2023/05/05 01:01:12;;;;;;;;;15.25;13.75;23.50;40.20;;;;;;110916;1247;49315;-61
2023/05/05 01:03:42;;;;;;;;;11.75;10.25;23.40;40.10;;;;;;110924;1247;49682;-61
2023/05/05 01:06:24;;;;;;;;;13.50;11.00;23.40;40.20;;;;;;110897;1243;44990;-59
2023/05/05 01:09:06;;;;;;;;;13.00;11.00;23.40;40.10;;;;;;110870;1242;54176;-61
2023/05/05 01:11:51;;;;;;;;;12.00;10.00;23.40;40.20;;;;;;110890;1247;53329;-60
2023/05/05 01:14:23;;;;;;;;;13.50;10.75;23.40;40.20;;;;;;110868;1243;49821;-60
2023/05/05 01:17:02;;;;;;;;;11.50;10.00;23.40;40.30;;;;;;110869;1241;50150;-61
2023/05/05 01:19:55;;;;;;;;;12.67;11.00;23.40;40.20;;;;;;110857;1244;45817;-61
2023/05/05 01:22:27;;;;;;;;;10.00;9.00;23.40;40.10;;;;;;110951;1241;54155;-60
2023/05/05 01:25:08;;;;;;;;;12.00;11.00;23.40;40.30;;;;;;110968;1247;54111;-61
2023/05/05 01:27:58;;;;;;;;;11.00;10.00;23.40;40.10;;;;;;110863;1243;49331;-61
2023/05/05 01:30:44;;;;;;;;;11.75;10.75;23.40;40.10;;;;;;110966;1246;49382;-61
2023/05/05 01:33:14;;;;;;;;;13.33;11.00;23.50;40.10;;;;;;110864;1250;45156;-59
2023/05/05 01:35:44;;;;;;;;;12.75;11.00;23.40;39.60;;;;;;110930;1241;54935;-60
2023/05/05 01:38:28;;;;;;;;;13.67;10.67;23.40;40.10;;;;;;110723;1247;55059;-60
2023/05/05 01:41:14;;;;;;;;;10.75;9.75;23.40;40.10;;;;;;110880;1243;49321;-60
2023/05/05 01:43:44;;;;;;;;;12.75;11.75;23.40;40.10;;;;;;110878;1241;50664;-60
2023/05/05 01:46:12;;;;;;;;;11.50;10.25;23.40;40.10;;;;;;110999;1241;45020;-61
2023/05/05 01:48:41;;;;;;;;;12.75;11.75;23.40;40.20;;;;;;110829;1248;54806;-63
2023/05/05 01:51:09;;;;;;;;;12.75;9.25;23.40;40.20;;;;;;110981;1247;54082;-60
2023/05/05 01:53:37;;;;;;;;;12.50;9.75;23.40;40.20;;;;;;110861;1241;49784;-60
2023/05/05 01:56:06;;;;;;;;;11.75;10.75;23.30;40.30;;;;;;110700;1243;50230;-60
2023/05/05 01:58:34;;;;;;;;;14.00;11.75;23.30;40.20;;;;;;110879;1243;45300;-60
2023/05/05 02:01:02;;;;;;;;;13.00;12.00;23.30;40.10;;;;;;110878;1241;54196;-61
2023/05/05 02:03:30;;;;;;;;;11.00;10.00;23.30;39.70;;;;;;110680;1247;53808;-61
2023/05/05 02:05:59;;;;;;;;;12.75;11.75;23.30;40.40;;;;;;110875;1243;50619;-62
2023/05/05 02:08:27;;;;;;;;;12.75;11.00;23.30;40.20;;;;;;110718;1244;49836;-61
2023/05/05 02:10:55;;;;;;;;;11.67;10.00;23.30;40.10;;;;;;110862;1242;45352;-61
2023/05/05 02:13:24;;;;;;;;;11.67;10.33;23.30;40.20;;;;;;110915;1246;55047;-60
2023/05/05 02:15:52;;;;;;;;;13.33;11.00;23.30;40.20;;;;;;110981;1247;53892;-60
2023/05/05 02:18:21;;;;;;;;;11.75;10.00;23.30;40.50;;;;;;110809;1247;49911;-61
2023/05/05 02:20:48;;;;;;;;;13.00;10.75;23.30;40.20;;;;;;110915;1242;49326;-61
2023/05/05 02:23:14;;;;;;;;;13.00;10.00;23.30;40.40;;;;;;110890;1247;46076;-61
2023/05/05 02:25:46;;;;;;;;;12.00;11.00;23.30;40.20;;;;;;110840;1241;55105;-60
2023/05/05 02:28:32;;;;;;;;;11.00;10.00;23.20;40.10;;;;;;110963;1241;53816;-60
2023/05/05 02:30:59;;;;;;;;;13.50;10.50;23.30;40.20;;;;;;110965;1246;50870;-60
2023/05/05 02:33:28;;;;;;;;;11.00;10.00;23.30;40.20;;;;;;110922;1241;48813;-61
2023/05/05 02:35:56;;;;;;;;;13.00;10.00;23.20;40.10;;;;;;110701;1249;44943;-61
2023/05/05 02:38:26;;;;;;;;;11.00;10.00;23.20;40.10;;;;;;110720;1248;55550;-61
2023/05/05 02:40:54;;;;;;;;;13.00;12.00;23.20;40.10;;;;;;110924;1242;53201;-61
2023/05/05 02:43:22;;;;;;;;;12.00;11.00;23.20;40.10;;;;;;110795;1248;48974;-61
2023/05/05 02:45:50;;;;;;;;;10.67;9.67;23.20;40.30;;;;;;110876;1245;50338;-60
2023/05/05 02:48:17;;;;;;;;;13.67;12.33;23.20;40.10;;;;;;110894;1245;44570;-60
2023/05/05 02:50:44;;;;;;;;;14.25;11.75;23.20;40.10;;;;;;110920;1243;55463;-61
2023/05/05 02:53:11;;;;;;;;;11.75;10.00;23.20;40.10;;;;;;110954;1244;54191;-62
2023/05/05 02:55:44;;;;;;;;;11.00;10.00;23.20;40.10;;;;;;110850;1243;49277;-61
2023/05/05 02:58:20;;;;;;;;;14.00;11.00;23.20;40.20;;;;;;110679;1250;50035;-61
2023/05/05 03:01:21;;;;;;;;;12.75;10.75;23.20;40.10;;;;;;110860;1244;45606;-60
2023/05/05 03:04:06;;;;;;;;;12.67;11.33;23.10;40.00;;;;;;110952;1244;54186;-62
2023/05/05 03:06:39;;;;;;;;;12.75;10.00;23.20;40.10;;;;;;110903;1245;54404;-60
2023/05/05 03:09:15;;;;;;;;;12.00;11.00;23.20;40.10;;;;;;110969;1247;50005;-61
2023/05/05 03:12:02;;;;;;;;;12.00;10.00;23.20;40.30;;;;;;110796;1247;49679;-61
2023/05/05 03:14:35;;;;;;;;;12.00;11.00;23.20;40.10;;;;;;110740;1241;44682;-60
2023/05/05 03:17:02;;;;;;;;;12.75;12.00;23.20;40.10;;;;;;110942;1246;55522;-61
2023/05/05 03:19:30;;;;;;;;;11.00;10.00;23.20;40.10;;;;;;110834;1241;54808;-61
2023/05/05 03:21:58;;;;;;;;;12.00;11.00;23.10;40.00;;;;;;110845;1247;50392;-60
2023/05/05 03:24:25;;;;;;;;;12.00;10.67;23.10;40.00;;;;;;110749;1247;49078;-61
2023/05/05 03:26:52;;;;;;;;;13.00;10.00;23.10;40.10;;;;;;110828;1242;45357;-61
2023/05/05 03:29:19;;;;;;;;;13.75;11.00;23.10;40.00;;;;;;110860;1246;55108;-60
2023/05/05 03:31:46;;;;;;;;;14.00;13.00;23.10;40.00;;;;;;110888;1244;53609;-61
2023/05/05 03:34:13;;;;;;;;;14.50;10.25;23.10;40.00;;;;;;110811;1241;49099;-61
2023/05/05 03:36:40;;;;;;;;;14.00;12.50;23.10;40.10;;;;;;110734;1241;50902;-60
2023/05/05 03:39:07;;;;;;;;;11.00;10.00;23.10;40.30;;;;;;110860;1244;45055;-60
2023/05/05 03:41:34;;;;;;;;;12.75;11.00;23.10;40.50;;;;;;110853;1244;54269;-61
2023/05/05 03:44:01;;;;;;;;;11.00;10.00;23.10;40.50;;;;;;110843;1241;54280;-61
2023/05/05 03:46:28;;;;;;;;;15.00;14.00;23.10;40.30;;;;;;110694;1247;50147;-60
2023/05/05 03:48:56;;;;;;;;;14.00;11.00;23.00;40.30;;;;;;110937;1247;49777;-60
2023/05/05 03:51:23;;;;;;;;;14.00;10.75;23.10;40.30;;;;;;110826;1247;44821;-60
2023/05/05 03:53:51;;;;;;;;;12.75;10.50;23.10;40.30;;;;;;110820;1248;54686;-61
2023/05/05 03:56:18;;;;;;;;;15.75;14.00;23.00;39.80;;;;;;110736;1242;54888;-60
2023/05/05 03:58:45;;;;;;;;;14.75;12.00;23.00;40.20;;;;;;110955;1241;49796;-61
2023/05/05 04:01:12;;;;;;;;;15.67;12.00;23.00;40.30;;;;;;110911;1241;49568;-65
2023/05/05 04:03:39;;;;;;;;;15.00;12.50;23.00;40.30;;;;;;111059;1241;45072;-69
2023/05/05 04:06:06;;;;;;;;;16.33;13.67;23.00;40.60;;;;;;111317;1244;54383;-67
2023/05/05 04:08:33;;;;;;;;;16.00;15.00;23.00;41.30;;;;;;111024;1247;54207;-66
2023/05/05 04:11:03;;;;;;;;;13.75;11.75;23.10;41.60;;;;;;110960;1242;49068;-65
2023/05/05 04:13:30;;;;;;;;;17.50;16.50;23.10;41.50;;;;;;110995;1246;49725;-64
2023/05/05 04:15:58;;;;;;;;;32.25;20.00;23.10;42.10;;;;;;111342;1247;45187;-64
2023/05/05 04:18:25;;;;;;;;;30.67;20.00;23.10;43.00;;;;;;110791;1244;54775;-64
2023/05/05 04:20:52;;;;;;;;;25.00;18.50;23.10;43.00;;;;;;110763;1243;54601;-62
2023/05/05 04:23:19;;;;;;;;;24.25;21.00;23.10;42.40;;;;;;110954;1246;50065;-67
2023/05/05 04:25:46;;;;;;;;;32.00;24.75;23.10;42.40;;;;;;111331;1247;49771;-64
2023/05/05 04:28:13;;;;;;;;;24.75;18.25;23.10;42.40;;;;;;111038;1243;44476;-63
2023/05/05 04:30:40;;;;;;;;;21.00;16.00;23.10;42.30;;;;;;110751;1242;54260;-63
2023/05/05 04:33:07;;;;;;;;;21.00;17.00;23.20;41.90;;;;;;110866;1247;54321;-62
2023/05/05 04:35:34;;;;;;;;;19.75;18.75;23.20;41.70;;;;;;110984;1243;50058;-62
2023/05/05 04:38:01;;;;;;;;;19.75;18.75;23.20;41.50;;;;;;110987;1242;48928;-63
2023/05/05 04:40:28;;;;;;;;;19.67;16.00;23.20;41.40;;;;;;110870;1242;44769;-62
2023/05/05 04:42:55;;;;;;;;;18.33;16.00;23.20;41.40;;;;;;110870;1247;54789;-62
2023/05/05 04:45:22;;;;;;;;;18.75;17.50;23.10;41.80;;;;;;110939;1241;54370;-62
2023/05/05 04:47:49;;;;;;;;;21.00;18.25;23.10;41.40;;;;;;110918;1241;49842;-62
2023/05/05 04:50:16;;;;;;;;;20.67;19.67;23.10;41.20;;;;;;110889;1247;49447;-62
2023/05/05 04:52:43;;;;;;;;;23.00;20.50;23.10;41.10;;;;;;110966;1246;45172;-62
2023/05/05 04:55:10;;;;;;;;;19.00;17.00;23.10;41.20;;;;;;110976;1241;54927;-62
2023/05/05 04:57:37;;;;;;;;;20.75;17.00;23.10;41.30;;;;;;110961;1246;54108;-62
2023/05/05 05:00:06;;;;;;;;;21.50;18.75;23.10;41.20;;;;;;110958;1242;49373;-61
2023/05/05 05:02:33;;;;;;;;;18.25;15.25;23.10;41.00;;;;;;110967;1246;49910;-61
2023/05/05 05:05:00;;;;;;;;;25.75;21.00;23.10;40.90;;;;;;110973;1241;44809;-62
2023/05/05 05:07:27;;;;;;;;;19.00;16.00;23.10;41.00;;;;;;110927;1243;54605;-62
2023/05/05 05:09:54;;;;;;;;;23.00;16.75;23.10;40.90;;;;;;110915;1244;53527;-63
2023/05/05 05:12:21;;;;;;;;;17.67;16.00;23.10;40.70;;;;;;110961;1247;49266;-62
2023/05/05 05:14:48;;;;;;;;;21.50;17.00;23.00;40.80;;;;;;110944;1243;50561;-61
2023/05/05 05:17:15;;;;;;;;;19.50;15.25;23.00;40.50;;;;;;110936;1244;44760;-63
2023/05/05 05:19:42;;;;;;;;;15.25;13.75;23.00;40.50;;;;;;110941;1241;55456;-61
2023/05/05 05:22:09;;;;;;;;;17.00;16.00;23.00;40.40;;;;;;110896;1243;54555;-62
2023/05/05 05:24:36;;;;;;;;;24.00;20.00;23.00;40.40;;;;;;110948;1247;50210;-62
2023/05/05 05:27:06;;;;;;;;;17.67;15.33;23.00;40.30;;;;;;110958;1241;48889;-60
2023/05/05 05:29:34;;;;;;;;;24.25;19.00;23.00;40.30;;;;;;110920;1243;44740;-62
2023/05/05 05:32:00;;;;;;;;;16.25;14.00;23.00;40.30;;;;;;110905;1243;54387;-60
2023/05/05 05:34:27;;;;;;;;;19.75;16.50;23.00;40.40;;;;;;110906;1242;54379;-62
2023/05/05 05:36:54;;;;;;;;;16.33;15.00;23.00;40.20;;;;;;110956;1247;49919;-62
2023/05/05 05:39:22;;;;;;;;;26.00;17.00;23.00;40.20;;;;;;110928;1244;49477;-62
2023/05/05 05:41:49;;;;;;;;;20.00;17.00;23.00;40.20;;;;;;110928;1243;45711;-62
2023/05/05 05:44:15;;;;;;;;;26.25;18.50;23.00;40.10;;;;;;111016;1245;55694;-63
2023/05/05 05:46:43;;;;;;;;;23.00;17.00;23.00;40.10;;;;;;110991;1244;53927;-62
2023/05/05 05:49:09;;;;;;;;;17.25;15.00;23.10;40.40;;;;;;111006;1246;49100;-62
2023/05/05 05:51:36;;;;;;;;;21.25;17.75;23.10;40.10;;;;;;110995;1245;49453;-62
2023/05/05 05:54:03;;;;;;;;;16.75;15.25;23.10;40.10;;;;;;111031;1243;45317;-63
2023/05/05 05:56:30;;;;;;;;;17.00;15.25;23.10;40.10;;;;;;111046;1241;54882;-63
2023/05/05 05:58:57;;;;;;;;;14.00;13.00;23.10;40.10;;;;;;111011;1245;54289;-61
2023/05/05 06:01:24;;;;;;;;;17.00;14.50;23.00;39.90;;;;;;111060;1247;49825;-61
2023/05/05 06:03:51;;;;;;;;;18.25;16.00;23.10;40.20;;;;;;110976;1245;49469;-64
2023/05/05 06:06:18;;;;;;;;;20.50;15.00;23.10;40.00;;;;;;111061;1245;44477;-63
2023/05/05 06:08:45;;;;;;;;;19.67;16.00;23.10;40.30;;;;;;111063;1245;55103;-63
2023/05/05 06:11:12;;;;;;;;;21.50;14.75;23.10;40.00;;;;;;111103;1242;54356;-62
2023/05/05 06:13:40;;;;;;;;;18.67;14.33;23.10;40.00;;;;;;110937;1243;49925;-62
2023/05/05 06:16:07;;;;;;;;;19.25;16.00;23.10;40.00;;;;;;110901;1242;49529;-63
2023/05/05 06:18:36;;;;;;;;;25.00;18.00;23.10;40.00;;;;;;110970;1244;44997;-63
2023/05/05 06:21:04;;;;;;;;;17.67;16.67;23.10;41.30;;;;;;110957;1244;54291;-71
2023/05/05 06:23:31;;;;;;;;;20.00;18.75;23.10;42.10;;;;;;111035;1240;53990;-66
2023/05/05 06:25:58;;;;;;;;;19.67;17.00;23.10;42.50;;;;;;111109;1241;49412;-67
2023/05/05 06:28:25;;;;;;;;;18.50;17.00;23.10;42.70;;;;;;111040;1243;50372;-66
2023/05/05 06:30:52;;;;;;;;;20.00;15.00;23.10;42.70;;;;;;111068;1245;45189;-66
2023/05/05 06:33:19;;;;;;;;;16.00;15.00;23.10;43.10;;;;;;111055;1243;54725;-68
2023/05/05 06:35:46;;;;;;;;;20.25;18.00;23.00;43.10;;;;;;110980;1243;53269;-66
2023/05/05 06:38:13;;;;;;;;;18.75;16.00;23.00;43.20;;;;;;111060;1246;49696;-67
2023/05/05 06:40:41;;;;;;;;;19.75;16.75;23.10;43.80;;;;;;110944;1246;50478;-66
2023/05/05 06:43:07;;;;;;;;;16.33;15.33;23.10;43.60;;;;;;111032;1242;45372;-66
2023/05/05 06:45:34;;;;;;;;;17.50;15.00;23.10;44.00;;;;;;111200;1245;54197;-66
2023/05/05 06:48:02;;;;;;;;;18.50;14.00;23.10;43.50;;;;;;111283;1245;54132;-67
2023/05/05 06:50:28;;;;;;;;;18.75;16.25;23.10;43.50;;;;;;110912;1244;49106;-66
2023/05/05 06:52:55;;;;;;;;;17.75;15.75;23.20;43.50;;;;;;111027;1242;49178;-67
2023/05/05 06:55:23;;;;;;;;;16.50;15.25;23.20;43.10;;;;;;111033;1245;45168;-68
2023/05/05 06:57:51;;;;;;;;;17.00;14.25;23.30;42.90;;;;;;111021;1245;55852;-67
2023/05/05 07:00:18;;;;;;;;;14.25;13.25;23.30;42.90;;;;;;111088;1241;54784;-66
2023/05/05 07:02:46;;;;;;;;;13.75;12.75;23.40;42.90;;;;;;111204;1245;49298;-66
2023/05/05 07:05:13;;;;;;;;;16.75;15.75;23.40;43.00;;;;;;110976;1244;49997;-66
2023/05/05 07:07:52;;;;;;;;;16.25;15.25;23.40;43.50;;;;;;111137;1245;44900;-66
2023/05/05 07:10:20;;;;;;;;;16.33;15.00;23.50;43.10;;;;;;110934;1248;54978;-65
2023/05/05 07:12:48;;;;;;;;;13.75;12.00;23.50;43.10;;;;;;111127;1245;53899;-67
2023/05/05 07:15:15;;;;;;;;;18.33;16.33;23.60;42.90;;;;;;111165;1243;49365;-67
2023/05/05 07:17:42;;;;;;;;;14.25;13.25;23.60;43.10;;;;;;110887;1247;49225;-68
2023/05/05 07:20:10;;;;;;;;;14.50;13.50;23.60;43.10;;;;;;110977;1245;44974;-67
2023/05/05 07:22:37;;;;;;;;;19.25;13.75;23.60;42.60;;;;;;111203;1241;55396;-66
2023/05/05 07:25:05;;;;;;;;;15.00;14.00;23.60;42.90;;;;;;110968;1245;53790;-68
2023/05/05 07:27:32;;;;;;;;;15.50;14.00;23.60;43.20;;;;;;110936;1246;49729;-68
2023/05/05 07:30:00;;;;;;;;;17.00;14.00;23.70;43.00;;;;;;111175;1241;49706;-65
2023/05/05 07:32:27;;;;;;;;;15.33;14.00;23.70;42.90;;;;;;110950;1247;44817;-66
2023/05/05 07:34:54;;;;;;;;;13.00;11.75;23.70;42.90;;;;;;111285;1245;54759;-67
2023/05/05 07:37:21;;;;;;;;;16.00;14.75;23.70;43.00;;;;;;111149;1243;53672;-66
2023/05/05 07:39:48;;;;;;;;;14.00;13.00;23.80;43.10;;;;;;111020;1243;49927;-66
2023/05/05 07:42:15;;;;;;;;;13.25;12.25;23.80;42.80;;;;;;111121;1243;50411;-66
2023/05/05 07:44:42;;;;;;;;;14.00;12.75;23.80;42.90;;;;;;111051;1243;45998;-66
2023/05/05 07:47:09;;;;;;;;;11.00;10.00;23.80;42.90;;;;;;110865;1243;54721;-67
2023/05/05 07:49:36;;;;;;;;;16.67;15.00;23.90;43.00;;;;;;110946;1247;53775;-67
2023/05/05 07:52:03;;;;;;;;;16.75;15.75;23.90;42.90;;;;;;110934;1243;49005;-66
2023/05/05 07:54:30;;;;;;;;;12.67;11.67;23.90;42.90;;;;;;111105;1246;49992;-66
2023/05/05 07:56:57;;;;;;;;;16.00;14.00;24.00;42.70;;;;;;111021;1241;45191;-68
2023/05/05 07:59:24;;;;;;;;;16.67;12.00;24.00;42.80;;;;;;111059;1241;55430;-66
2023/05/05 08:01:51;;;;;;;;;17.00;14.50;24.00;43.00;;;;;;111047;1247;53696;-67
2023/05/05 08:04:18;;;;;;;;;12.75;12.00;24.00;43.00;;;;;;110907;1248;49132;-66
2023/05/05 08:06:45;;;;;;;;;17.50;14.00;24.00;42.80;;;;;;111032;1242;48876;-68
2023/05/05 08:09:12;;;;;;;;;17.50;11.00;24.00;42.80;;;;;;111055;1245;44533;-68
2023/05/05 08:11:39;;;;;;;;;14.50;12.25;24.10;42.90;;;;;;111058;1241;54437;-66
2023/05/05 08:14:07;;;;;;;;;18.00;11.50;24.10;42.80;;;;;;111127;1245;53837;-66
2023/05/05 08:16:33;;;;;;;;;15.00;13.00;24.10;42.70;;;;;;111097;1245;50662;-67
2023/05/05 08:19:01;;;;;;;;;15.50;12.25;24.10;42.60;;;;;;111361;1243;49226;-67
2023/05/05 08:21:28;;;;;;;;;12.00;11.00;24.20;43.00;;;;;;111482;1240;45359;-67
2023/05/05 08:23:55;;;;;;;;;18.25;13.75;24.20;42.40;;;;;;111385;1243;54194;-68
2023/05/05 08:26:22;;;;;;;;;12.25;11.25;24.20;42.80;;;;;;111844;1241;53886;-64
2023/05/05 08:28:49;;;;;;;;;12.00;11.00;24.20;42.60;;;;;;111546;1240;50439;-65
2023/05/05 08:31:16;;;;;;;;;13.50;11.00;24.30;42.30;;;;;;111281;1238;49005;-67
2023/05/05 08:33:43;;;;;;;;;13.33;12.00;24.30;42.50;;;;;;111661;1241;45159;-69
2023/05/05 08:36:11;;;;;;;;;15.33;14.33;24.30;42.80;;;;;;111669;1241;54367;-66
2023/05/05 08:38:38;;;;;;;;;14.00;13.00;24.40;42.90;;;;;;111387;1238;53613;-69
2023/05/05 08:41:07;;;;;;;;;13.00;12.00;24.40;42.80;;;;;;111393;1240;48973;-67
2023/05/05 08:43:35;;;;;;;;;14.00;11.00;24.40;42.80;;;;;;111515;1241;48849;-66
2023/05/05 08:46:02;;;;;;;;;15.25;13.00;24.40;42.60;;;;;;111516;1237;45213;-68
2023/05/05 08:48:32;;;;;;;;;16.00;12.67;24.50;42.80;;;;;;111389;1241;55612;-67
2023/05/05 08:51:02;;;;;;;;;13.25;12.00;24.60;42.70;;;;;;111413;1238;53359;-67
2023/05/05 08:53:41;;;;;;;;;14.33;12.00;24.60;42.60;;;;;;111390;1238;49861;-67
2023/05/05 08:56:09;;;;;;;;;11.75;10.75;24.60;42.60;;;;;;111404;1242;48795;-67
2023/05/05 08:58:36;;;;;;;;;15.00;12.00;24.60;42.40;;;;;;110299;1238;1522175;-66
2023/05/05 09:01:05;;;;;;;;;13.50;12.00;24.70;42.50;;;;;;111292;1241;54388;-65
2023/05/05 09:03:32;;;;;;;;;12.75;11.75;24.70;42.50;;;;;;111492;1242;54319;-65
2023/05/05 09:05:59;;;;;;;;;14.00;11.25;24.70;42.00;;;;;;111337;1244;49560;-65
2023/05/05 09:08:27;;;;;;;;;11.00;10.00;24.70;42.30;;;;;;111450;1241;48977;-67
2023/05/05 09:10:54;;;;;;;;;11.75;10.75;24.80;42.40;;;;;;111479;1237;45371;-66
2023/05/05 09:13:22;;;;;;;;;15.00;12.00;24.80;42.00;;;;;;111277;1241;54228;-67
2023/05/05 09:15:49;;;;;;;;;11.75;10.75;24.80;42.20;;;;;;111239;1238;54230;-65
2023/05/05 09:18:16;;;;;;;;;14.00;12.75;24.80;42.40;;;;;;111453;1241;49498;-65
2023/05/05 09:20:43;;;;;;;;;11.00;10.00;24.90;42.40;;;;;;111431;1243;50482;-69
2023/05/05 09:23:13;;;;;;;;;12.00;11.00;24.90;42.10;;;;;;111453;1241;44251;-67
2023/05/05 09:25:41;;;;;;;;;14.00;12.33;24.90;42.30;;;;;;111380;1238;54904;-67
2023/05/05 09:28:16;;;;;;;;;13.25;11.25;24.90;42.40;;;;;;111453;1238;53969;-68
2023/05/05 09:30:45;;;;;;;;;12.00;10.75;25.00;42.10;;;;;;111456;1241;48967;-67
2023/05/05 09:33:12;;;;;;;;;13.50;11.25;25.00;42.30;;;;;;111508;1244;50079;-68
2023/05/05 09:35:53;;;;;;;;;12.00;11.00;25.00;42.00;;;;;;111508;1241;45692;-66
2023/05/05 09:38:22;;;;;;;;;13.00;10.00;25.00;42.20;;;;;;111492;1239;54632;-69
2023/05/05 09:40:51;;;;;;;;;11.00;10.00;25.00;42.40;;;;;;111349;1238;54129;-66
2023/05/05 09:43:20;;;;;;;;;11.00;10.00;25.10;42.40;;;;;;111368;1239;49895;-67
2023/05/05 09:45:48;;;;;;;;;13.25;12.25;25.10;42.20;;;;;;111477;1237;49959;-67
2023/05/05 09:48:27;;;;;;;;;13.00;12.00;25.10;42.20;;;;;;111260;1243;44573;-65
2023/05/05 09:50:55;;;;;;;;;12.00;10.75;25.10;42.20;;;;;;111251;1240;54683;-68
2023/05/05 09:53:23;;;;;;;;;11.75;10.75;25.10;43.50;;;;;;111429;1237;54264;-68
2023/05/05 09:55:57;;;;;;;;;13.00;10.33;25.20;42.20;;;;;;111205;1243;49488;-69
2023/05/05 09:58:27;;;;;;;;;11.00;10.00;25.20;42.40;;;;;;111460;1241;48941;-69
2023/05/05 10:00:55;;;;;;;;;13.00;11.00;25.20;42.40;;;;;;111731;1237;45589;-64
2023/05/05 10:03:22;;;;;;;;;11.75;10.75;25.20;42.00;;;;;;111346;1240;55395;-63
2023/05/05 10:05:58;;;;;;;;;14.75;13.00;25.20;42.10;;;;;;111645;1237;54620;-63
2023/05/05 10:08:27;;;;;;;;;11.25;9.00;25.30;42.10;;;;;;111718;1241;49644;-64
2023/05/05 10:10:59;;;;;;;;;11.00;10.00;25.30;42.10;;;;;;111493;1241;50217;-63
2023/05/05 10:13:26;;;;;;;;;10.25;9.00;25.30;42.10;;;;;;111257;1243;44567;-63
2023/05/05 10:15:55;;;;;;;;;12.00;10.00;25.40;42.00;;;;;;111371;1240;54557;-66
2023/05/05 10:18:24;;;;;;;;;11.00;10.00;25.40;42.00;;;;;;111502;1242;54249;-65
2023/05/05 10:21:00;;;;;;;;;11.00;10.00;25.40;41.50;;;;;;111740;1237;49465;-64
2023/05/05 10:23:33;;;;;;;;;12.50;11.50;25.40;42.10;;;;;;111615;1243;49992;-65
2023/05/05 10:26:05;;;;;;;;;10.00;9.00;25.50;41.90;;;;;;111943;1243;44822;-63
2023/05/05 10:28:34;;;;;;;;;10.00;9.00;25.50;41.80;;;;;;111420;1241;55176;-63
2023/05/05 10:31:02;;;;;;;;;14.25;10.25;25.50;41.80;;;;;;111474;1241;55476;-65
2023/05/05 10:33:54;;;;;;;;;13.00;11.67;25.50;41.90;;;;;;111181;1244;49358;-64
2023/05/05 10:36:21;;;;;;;;;11.00;10.00;25.50;42.00;;;;;;111439;1241;49630;-64
2023/05/05 10:38:49;;;;;;;;;11.00;10.00;25.50;41.80;;;;;;111443;1238;44804;-63
2023/05/05 10:41:17;;;;;;;;;10.25;9.25;25.50;41.90;;;;;;111490;1237;54774;-65
2023/05/05 10:43:45;;;;;;;;;11.00;10.00;25.50;42.10;;;;;;111423;1238;54031;-64
2023/05/05 10:46:12;;;;;;;;;13.00;12.00;25.50;42.00;;;;;;111601;1243;49546;-65
2023/05/05 10:49:18;;;;;;;;;11.67;10.33;25.50;41.70;;;;;;111376;1244;48884;-63
2023/05/05 10:52:03;;;;;;;;;11.00;10.00;25.60;41.70;;;;;;111211;1245;45404;-65
2023/05/05 10:54:51;;;;;;;;;11.00;9.00;25.70;41.70;;;;;;111661;1243;54115;-63
2023/05/05 10:57:21;;;;;;;;;10.50;9.25;25.70;41.90;;;;;;111467;1244;54351;-62
2023/05/05 10:59:48;;;;;;;;;13.75;12.75;25.80;42.10;;;;;;111207;1243;49033;-63
2023/05/05 11:02:20;;;;;;;;;12.50;11.50;25.70;41.90;;;;;;111583;1239;49565;-64
2023/05/05 11:05:13;;;;;;;;;14.00;11.33;25.70;42.10;;;;;;111566;1239;46161;-63
2023/05/05 11:07:41;;;;;;;;;15.50;12.75;25.70;42.50;;;;;;111428;1241;54867;-62
2023/05/05 11:10:11;;;;;;;;;11.75;10.75;25.70;40.70;;;;;;111444;1237;53352;-62
2023/05/05 11:13:01;;;;;;;;;12.00;11.00;25.70;42.00;;;;;;111626;1237;49701;-62
2023/05/05 11:15:28;;;;;;;;;10.25;9.25;25.60;41.00;;;;;;111386;1244;49070;-62
2023/05/05 11:17:57;;;;;;;;;11.00;10.00;25.60;40.90;;;;;;111475;1241;45723;-63
2023/05/05 11:20:38;;;;;;;;;10.00;9.00;25.70;41.70;;;;;;111461;1242;55591;-62
2023/05/05 11:23:05;;;;;;;;;13.50;11.00;25.60;41.90;;;;;;111290;1242;53650;-62
2023/05/05 11:25:39;;;;;;;;;10.00;9.00;25.70;42.10;;;;;;111213;1238;50295;-61
2023/05/05 11:28:15;;;;;;;;;11.00;10.00;25.60;42.10;;;;;;111338;1241;49841;-62
2023/05/05 11:30:57;;;;;;;;;12.00;11.00;25.60;42.00;;;;;;111395;1243;45411;-62
2023/05/05 11:33:30;;;;;;;;;10.75;9.50;25.60;42.30;;;;;;111585;1240;55351;-60
2023/05/05 11:36:07;;;;;;;;;11.00;10.00;25.60;42.20;;;;;;111583;1241;53673;-60
2023/05/05 11:39:05;;;;;;;;;10.33;9.00;25.60;42.30;;;;;;111403;1237;50515;-61
2023/05/05 11:41:32;;;;;;;;;11.00;10.00;25.60;41.90;;;;;;111466;1241;49870;-61
2023/05/05 11:44:13;;;;;;;;;13.00;11.50;25.60;42.10;;;;;;111654;1238;46331;-65
2023/05/05 11:47:02;;;;;;;;;10.25;9.00;25.60;42.70;;;;;;111373;1241;54856;-63
2023/05/05 11:49:31;;;;;;;;;12.00;10.00;25.60;42.00;;;;;;111546;1239;54470;-61
2023/05/05 11:52:02;;;;;;;;;13.75;12.50;25.60;41.80;;;;;;111132;1244;48914;-62
2023/05/05 11:54:30;;;;;;;;;12.00;11.00;25.60;42.40;;;;;;111392;1241;49604;-63
2023/05/05 11:57:06;;;;;;;;;23.75;19.50;25.70;42.40;;;;;;111561;1241;46054;-61
2023/05/05 11:59:38;;;;;;;;;28.75;19.25;25.70;42.70;;;;;;111431;1237;54913;-62
2023/05/05 12:02:05;;;;;;;;;25.00;21.67;25.70;42.90;;;;;;111533;1238;54420;-62
2023/05/05 12:04:32;;;;;;;;;28.00;20.33;25.70;44.40;;;;;;111542;1237;50168;-63
2023/05/05 12:06:59;;;;;;;;;26.50;18.75;25.70;44.10;;;;;;111504;1241;49362;-60
2023/05/05 12:09:26;;;;;;;;;21.25;17.00;25.80;43.90;;;;;;111465;1241;44807;-61
2023/05/05 12:11:57;;;;;;;;;21.50;20.00;25.80;43.70;;;;;;111598;1241;54975;-61
2023/05/05 12:14:24;;;;;;;;;28.00;18.00;25.90;43.60;;;;;;111351;1240;53949;-60
2023/05/05 12:17:05;;;;;;;;;22.33;18.00;25.90;43.40;;;;;;111527;1243;48881;-61
2023/05/05 12:19:33;;;;;;;;;27.50;21.25;26.00;43.40;;;;;;111417;1238;49670;-62
2023/05/05 12:22:02;;;;;;;;;25.00;18.00;26.00;42.90;;;;;;111673;1239;44734;-61
2023/05/05 12:24:31;;;;;;;;;23.50;19.25;26.10;42.90;;;;;;111525;1243;54347;-62
2023/05/05 12:27:07;;;;;;;;;31.50;21.00;26.10;42.70;;;;;;111579;1238;54576;-61
2023/05/05 12:29:34;;;;;;;;;22.25;17.00;26.10;42.60;;;;;;111380;1241;50058;-61
2023/05/05 12:32:02;;;;;;;;;22.67;20.67;26.20;42.50;;;;;;111571;1237;50539;-60